Time;durP1;ratioP1;P1;durP2;ratioP2;P2;SDS_P1;SDS_P2;PMS_P1;PMS_P2;Temp;Humidity;BMP_temperature;BMP_pressure;BME280_temperature;BME280_humidity;BME280_pressure;Samples;Min_cycle;Max_cycle;Signal;HPM_P1;HPM_P2
2022/05/06 00:00:18;;;;;;;23.65;15.68;;;9.80;99.90;;;;;;5071634;28;20381;-72
2022/05/06 00:02:44;;;;;;;22.92;14.75;;;9.70;99.90;;;;;;5092032;28;20036;-72
2022/05/06 00:05:11;;;;;;;24.50;14.35;;;9.70;99.90;;;;;;5073149;28;20107;-72
2022/05/06 00:07:37;;;;;;;21.70;14.25;;;9.80;99.90;;;;;;5043389;28;20052;-71
2022/05/06 00:10:05;;;;;;;19.98;14.63;;;9.80;99.90;;;;;;5042393;28;20112;-72
2022/05/06 00:12:31;;;;;;;22.08;14.32;;;9.80;99.90;;;;;;5063500;28;20223;-71
2022/05/06 00:14:57;;;;;;;19.95;13.93;;;9.90;99.90;;;;;;5026571;28;20032;-71
2022/05/06 00:17:23;;;;;;;24.15;15.13;;;9.90;99.90;;;;;;5037941;28;20039;-72
2022/05/06 00:19:49;;;;;;;22.45;15.98;;;9.70;99.90;;;;;;5051282;28;20032;-72
2022/05/06 00:22:15;;;;;;;25.83;16.67;;;9.90;99.90;;;;;;5041048;28;20105;-72
2022/05/06 00:24:41;;;;;;;24.85;16.02;;;9.90;99.90;;;;;;5033053;28;20037;-71
2022/05/06 00:27:06;;;;;;;26.02;16.23;;;10.10;99.90;;;;;;5042662;28;20044;-71
2022/05/06 00:29:33;;;;;;;24.52;15.43;;;10.20;99.90;;;;;;5060210;28;20033;-72
2022/05/06 00:32:00;;;;;;;22.70;16.77;;;10.10;99.90;;;;;;5085025;28;20223;-72
2022/05/06 00:34:25;;;;;;;30.25;18.70;;;10.10;99.90;;;;;;5069246;28;20093;-71
2022/05/06 00:36:51;;;;;;;25.58;16.60;;;10.20;99.90;;;;;;5044601;28;20107;-72
2022/05/06 00:39:17;;;;;;;26.25;16.90;;;10.20;99.90;;;;;;5064318;28;20587;-71
2022/05/06 00:41:42;;;;;;;23.25;16.73;;;10.20;99.90;;;;;;5054028;28;20365;-71
2022/05/06 00:44:09;;;;;;;24.05;15.75;;;10.20;99.90;;;;;;5053853;28;20029;-71
2022/05/06 00:46:38;;;;;;;25.88;16.38;;;10.20;99.90;;;;;;5024678;28;20053;-71
2022/05/06 00:49:12;;;;;;;25.75;16.80;;;10.20;99.90;;;;;;5056009;28;20100;-71
2022/05/06 00:51:39;;;;;;;27.45;16.08;;;10.20;99.90;;;;;;5061219;28;20085;-71
2022/05/06 00:54:06;;;;;;;27.83;17.58;;;10.20;99.90;;;;;;5054730;28;20222;-71
2022/05/06 00:56:33;;;;;;;28.00;17.55;;;10.10;99.90;;;;;;5078460;28;20153;-71
2022/05/06 00:58:59;;;;;;;23.83;17.35;;;10.10;99.90;;;;;;5094628;28;20045;-71
2022/05/06 01:01:24;;;;;;;25.13;17.02;;;10.20;99.90;;;;;;5058221;28;20107;-71
2022/05/06 01:03:50;;;;;;;22.23;16.38;;;10.20;99.90;;;;;;5058349;28;20028;-72
2022/05/06 01:06:17;;;;;;;27.80;18.83;;;10.30;99.90;;;;;;5037378;28;20056;-72
2022/05/06 01:08:43;;;;;;;26.40;17.70;;;10.30;99.90;;;;;;5076967;28;20059;-71
2022/05/06 01:11:11;;;;;;;31.17;17.45;;;10.30;99.90;;;;;;5051620;28;20072;-72
2022/05/06 01:13:44;;;;;;;30.60;17.50;;;10.30;99.90;;;;;;5049622;28;20300;-72
2022/05/06 01:16:12;;;;;;;25.63;17.05;;;10.40;99.90;;;;;;5084951;28;20033;-72
2022/05/06 01:18:37;;;;;;;29.92;18.77;;;10.40;99.90;;;;;;5048237;28;20021;-72
2022/05/06 01:21:05;;;;;;;27.38;17.50;;;10.40;99.90;;;;;;5066482;28;20315;-72
2022/05/06 01:23:32;;;;;;;25.42;16.58;;;10.30;99.90;;;;;;5036295;28;20047;-71
2022/05/06 01:25:58;;;;;;;21.95;15.68;;;10.20;99.90;;;;;;5050157;28;20198;-71
2022/05/06 01:28:26;;;;;;;20.98;15.40;;;9.90;99.90;;;;;;5051053;28;20035;-72
2022/05/06 01:30:59;;;;;;;26.77;15.85;;;10.00;99.90;;;;;;5047148;28;20034;-71
2022/05/06 01:33:26;;;;;;;23.42;16.20;;;9.80;99.90;;;;;;5045821;28;20079;-72
2022/05/06 01:36:06;;;;;;;26.00;16.50;;;9.70;99.90;;;;;;5028808;28;20033;-73
2022/05/06 01:38:43;;;;;;;20.23;13.80;;;9.60;99.90;;;;;;5058137;28;20048;-72
2022/05/06 01:41:21;;;;;;;20.17;13.43;;;9.70;99.90;;;;;;5041030;28;20043;-71
2022/05/06 01:43:53;;;;;;;23.85;14.40;;;9.70;99.90;;;;;;5079083;28;20558;-72
2022/05/06 01:46:21;;;;;;;21.30;14.18;;;9.70;99.90;;;;;;5080592;28;20220;-72
2022/05/06 01:48:48;;;;;;;21.33;13.98;;;9.80;99.90;;;;;;5047668;28;20044;-72
2022/05/06 01:51:15;;;;;;;23.63;15.10;;;9.70;99.90;;;;;;5064816;28;20021;-72
2022/05/06 01:53:44;;;;;;;21.27;14.93;;;9.80;99.90;;;;;;5087352;28;20318;-71
2022/05/06 01:56:11;;;;;;;23.27;14.45;;;9.80;99.90;;;;;;5064189;28;20032;-72
2022/05/06 01:58:37;;;;;;;24.55;16.13;;;9.80;99.90;;;;;;5051173;28;20020;-71
2022/05/06 02:01:04;;;;;;;23.08;14.65;;;9.70;99.90;;;;;;5080907;28;20326;-71
2022/05/06 02:06:14;;;;;;;23.45;14.60;;;9.80;99.90;;;;;;5063949;28;20049;-72
2022/05/06 02:08:39;;;;;;;24.13;15.48;;;9.80;99.90;;;;;;5061358;28;20244;-72
2022/05/06 02:11:06;;;;;;;23.77;15.05;;;9.70;99.90;;;;;;5060472;28;20028;-73
2022/05/06 02:13:33;;;;;;;19.55;14.23;;;9.70;99.90;;;;;;5029164;28;20037;-71
2022/05/06 02:15:59;;;;;;;20.27;13.57;;;9.70;99.90;;;;;;5090254;28;20265;-72
2022/05/06 02:18:26;;;;;;;24.73;15.48;;;9.60;99.90;;;;;;5055414;28;20055;-72
2022/05/06 02:20:55;;;;;;;21.42;14.73;;;9.60;99.90;;;;;;5064445;28;20036;-74
2022/05/06 02:23:20;;;;;;;23.25;16.05;;;9.70;99.90;;;;;;5050488;28;20341;-73
2022/05/06 02:25:47;;;;;;;24.65;16.95;;;9.70;99.90;;;;;;5045824;28;20037;-72
2022/05/06 02:28:14;;;;;;;27.00;17.30;;;9.70;99.90;;;;;;5066147;28;20029;-71
2022/05/06 02:33:25;;;;;;;27.60;17.10;;;9.80;99.90;;;;;;5058709;28;20283;-71
2022/05/06 02:35:53;;;;;;;34.72;21.48;;;9.70;99.90;;;;;;5058279;28;20029;-71
2022/05/06 02:38:22;;;;;;;29.63;20.35;;;9.80;99.90;;;;;;5034807;28;20033;-72
2022/05/06 02:40:49;;;;;;;33.92;20.88;;;9.90;99.90;;;;;;5056133;28;20037;-71
2022/05/06 02:43:15;;;;;;;33.25;21.27;;;9.90;99.90;;;;;;5063999;28;20057;-72
2022/05/06 02:45:41;;;;;;;35.20;21.50;;;10.00;99.90;;;;;;5045366;28;20041;-72
2022/05/06 02:48:08;;;;;;;32.45;22.08;;;10.10;99.90;;;;;;5057973;28;20226;-72
2022/05/06 02:50:33;;;;;;;37.63;23.33;;;10.10;99.90;;;;;;5059139;28;20225;-70
2022/05/06 02:53:00;;;;;;;31.42;21.27;;;10.10;99.90;;;;;;5043200;28;20037;-71
2022/05/06 02:55:26;;;;;;;32.60;22.83;;;10.10;99.90;;;;;;5060779;28;20124;-71
2022/05/06 02:57:51;;;;;;;32.20;20.52;;;10.10;99.90;;;;;;5079861;28;20039;-70
2022/05/06 03:00:17;;;;;;;29.50;18.80;;;10.00;99.90;;;;;;5048027;28;20036;-71
2022/05/06 03:02:43;;;;;;;29.85;19.17;;;9.90;99.90;;;;;;5044203;28;20037;-71
2022/05/06 03:05:10;;;;;;;30.67;19.75;;;9.90;99.90;;;;;;5056952;28;20058;-70
2022/05/06 03:07:36;;;;;;;30.38;18.80;;;10.00;99.90;;;;;;5059986;28;20091;-70
2022/05/06 03:10:03;;;;;;;27.58;18.23;;;10.10;99.90;;;;;;5035910;28;20028;-70
2022/05/06 03:12:30;;;;;;;27.88;19.02;;;10.20;99.90;;;;;;5079825;28;20028;-70
2022/05/06 03:14:57;;;;;;;27.98;18.08;;;10.20;99.90;;;;;;5062802;28;20032;-71
2022/05/06 03:17:23;;;;;;;32.40;20.60;;;10.10;99.90;;;;;;5059255;28;20036;-70
2022/05/06 03:19:49;;;;;;;29.65;19.83;;;10.10;99.90;;;;;;5032010;28;20028;-70
2022/05/06 03:22:18;;;;;;;34.13;21.42;;;10.10;99.90;;;;;;5080437;28;20239;-71
2022/05/06 03:24:44;;;;;;;36.88;21.75;;;10.20;99.90;;;;;;5080321;28;20119;-70
2022/05/06 03:29:55;;;;;;;;;;;10.20;99.90;;;;;;5047090;28;20032;-71
2022/05/06 03:32:22;;;;;;;33.00;21.33;;;10.40;99.90;;;;;;5068150;28;19993;-71
2022/05/06 03:34:49;;;;;;;32.13;20.02;;;10.40;99.90;;;;;;5091278;28;20376;-71
2022/05/06 03:37:15;;;;;;;36.55;22.95;;;10.40;99.90;;;;;;5044675;28;20212;-71
2022/05/06 03:39:41;;;;;;;34.30;21.02;;;10.40;99.90;;;;;;5062084;28;20040;-71
2022/05/06 03:42:06;;;;;;;32.72;20.65;;;10.50;99.90;;;;;;5062865;28;20066;-71
2022/05/06 03:44:32;;;;;;;36.13;22.98;;;10.40;99.90;;;;;;5047311;28;20112;-71
2022/05/06 03:46:58;;;;;;;33.78;20.88;;;10.60;99.90;;;;;;5041781;28;20239;-70
2022/05/06 03:49:23;;;;;;;36.50;22.98;;;10.60;99.90;;;;;;5059543;28;20029;-71
2022/05/06 03:51:49;;;;;;;40.58;23.70;;;10.80;99.90;;;;;;5073916;28;20265;-71
2022/05/06 03:54:16;;;;;;;38.95;23.83;;;10.80;99.90;;;;;;5078175;28;20100;-71
2022/05/06 03:56:42;;;;;;;43.97;25.77;;;10.80;99.90;;;;;;5062686;28;20103;-71
2022/05/06 03:59:07;;;;;;;40.80;24.85;;;11.00;99.90;;;;;;5079289;28;20043;-72
2022/05/06 04:01:33;;;;;;;44.40;26.75;;;10.90;99.90;;;;;;5062458;28;20035;-70
2022/05/06 04:03:59;;;;;;;49.17;26.02;;;11.20;99.90;;;;;;5040175;28;20043;-71
2022/05/06 04:06:24;;;;;;;36.90;21.90;;;11.20;99.90;;;;;;5059403;28;20315;-71
2022/05/06 04:08:50;;;;;;;36.03;21.73;;;11.30;99.90;;;;;;5042735;28;20029;-72
2022/05/06 04:11:19;;;;;;;41.03;24.50;;;11.30;99.90;;;;;;5046725;28;20091;-72
2022/05/06 04:13:45;;;;;;;44.78;26.13;;;11.30;99.90;;;;;;5061314;28;20028;-72
2022/05/06 04:16:10;;;;;;;39.08;23.73;;;11.50;99.90;;;;;;5042277;28;20201;-72
2022/05/06 04:18:36;;;;;;;42.28;24.85;;;11.40;99.90;;;;;;5026161;28;20071;-71
2022/05/06 04:24:04;;;;;;;45.05;26.30;;;11.50;99.90;;;;;;5020775;28;20084;-71
2022/05/06 04:26:30;;;;;;;42.13;24.77;;;11.50;99.90;;;;;;5038263;28;20040;-71
2022/05/06 04:28:56;;;;;;;33.58;20.90;;;11.60;99.90;;;;;;5025683;28;20328;-71
2022/05/06 04:31:21;;;;;;;36.63;22.65;;;11.40;99.90;;;;;;5042584;28;20151;-71
2022/05/06 04:33:47;;;;;;;35.25;23.27;;;11.40;99.90;;;;;;5064252;28;20079;-72
2022/05/06 04:36:13;;;;;;;39.00;24.17;;;11.50;99.90;;;;;;5057411;28;20378;-71
2022/05/06 04:38:38;;;;;;;36.30;22.75;;;11.50;99.90;;;;;;5042535;28;20029;-71
2022/05/06 04:41:04;;;;;;;39.42;22.67;;;11.60;99.90;;;;;;5041313;28;20021;-72
2022/05/06 04:43:30;;;;;;;40.83;23.73;;;11.60;99.90;;;;;;5055804;28;20105;-71
2022/05/06 04:45:56;;;;;;;41.30;24.20;;;11.70;99.90;;;;;;5050619;28;20108;-71
2022/05/06 04:48:22;;;;;;;40.45;24.85;;;11.90;99.90;;;;;;5042379;28;20041;-72
2022/05/06 04:50:48;;;;;;;38.80;22.25;;;12.00;99.90;;;;;;5045218;28;20329;-70
2022/05/06 04:53:14;;;;;;;35.58;22.58;;;12.00;99.90;;;;;;5054291;28;20044;-71
2022/05/06 04:55:43;;;;;;;34.58;21.15;;;12.00;99.90;;;;;;5059801;28;20273;-71
2022/05/06 04:58:10;;;;;;;32.45;21.00;;;12.00;99.90;;;;;;5062275;28;20450;-70
2022/05/06 05:00:36;;;;;;;34.53;21.45;;;12.10;99.90;;;;;;5029566;28;20114;-71
2022/05/06 05:03:03;;;;;;;33.70;21.23;;;12.10;99.90;;;;;;5049661;28;20160;-71
2022/05/06 05:05:29;;;;;;;31.60;20.98;;;12.30;99.90;;;;;;5064126;28;20346;-71
2022/05/06 05:07:55;;;;;;;33.65;22.15;;;12.30;99.90;;;;;;5062658;28;20029;-71
2022/05/06 05:10:22;;;;;;;33.45;21.83;;;12.30;99.90;;;;;;5045935;28;20039;-71
2022/05/06 05:12:48;;;;;;;34.38;22.08;;;12.40;99.90;;;;;;5079173;28;20107;-71
2022/05/06 05:15:17;;;;;;;36.55;23.85;;;12.50;99.90;;;;;;5098320;28;20226;-71
2022/05/06 05:17:43;;;;;;;33.97;21.90;;;12.40;99.90;;;;;;5049248;28;20067;-71
2022/05/06 05:20:10;;;;;;;38.15;22.58;;;12.50;99.90;;;;;;5078901;28;20037;-71
2022/05/06 05:22:36;;;;;;;39.53;24.65;;;12.70;99.90;;;;;;5045643;28;20219;-72
2022/05/06 05:25:03;;;;;;;38.65;24.05;;;12.70;99.90;;;;;;5092005;28;20043;-71
2022/05/06 05:27:30;;;;;;;40.53;24.08;;;12.90;99.90;;;;;;5070309;28;20037;-71
2022/05/06 05:29:56;;;;;;;40.25;24.23;;;12.80;99.90;;;;;;5045566;28;20037;-70
2022/05/06 05:32:23;;;;;;;38.97;23.65;;;12.90;99.90;;;;;;5045551;28;20039;-71
2022/05/06 05:34:48;;;;;;;38.90;23.05;;;13.00;99.90;;;;;;5071578;28;20036;-71
2022/05/06 05:37:14;;;;;;;37.80;22.38;;;13.00;99.90;;;;;;5051915;28;20457;-71
2022/05/06 05:39:40;;;;;;;33.67;22.45;;;13.10;99.90;;;;;;5045306;28;20271;-71
2022/05/06 05:42:06;;;;;;;38.90;23.73;;;13.10;99.90;;;;;;5044943;28;20029;-71
2022/05/06 05:50:03;;;;;;;41.10;21.77;;;13.70;99.90;;;;;;5098317;28;20082;-71
2022/05/06 05:52:28;;;;;;;36.70;20.73;;;13.70;99.90;;;;;;5064960;28;20116;-70
2022/05/06 05:54:55;;;;;;;34.92;21.08;;;13.70;99.90;;;;;;5048157;28;20033;-70
2022/05/06 05:57:20;;;;;;;37.80;20.67;;;13.70;99.90;;;;;;5040045;28;20048;-70
2022/05/06 05:59:47;;;;;;;35.05;20.05;;;13.70;99.90;;;;;;5044914;28;20032;-70
2022/05/06 06:02:15;;;;;;;40.17;20.33;;;13.90;99.90;;;;;;5059896;28;20067;-71
2022/05/06 06:04:42;;;;;;;31.23;19.48;;;13.90;99.90;;;;;;5061576;28;20037;-70
2022/05/06 06:07:07;;;;;;;38.63;20.45;;;14.10;99.90;;;;;;5061048;28;20048;-70
2022/05/06 06:09:33;;;;;;;42.08;21.20;;;14.20;99.90;;;;;;5044642;28;20063;-70
2022/05/06 06:11:59;;;;;;;35.53;20.17;;;14.10;99.90;;;;;;5044619;28;20029;-71
2022/05/06 06:14:25;;;;;;;36.97;21.08;;;14.10;99.90;;;;;;5068075;28;20037;-71
2022/05/06 06:16:50;;;;;;;36.58;21.23;;;14.40;99.90;;;;;;5044757;28;20250;-71
2022/05/06 06:19:17;;;;;;;37.47;21.27;;;14.20;99.90;;;;;;5058386;28;20125;-71
2022/05/06 06:21:43;;;;;;;38.15;21.73;;;14.50;99.90;;;;;;5089270;28;20107;-71
2022/05/06 06:24:09;;;;;;;33.20;20.83;;;14.50;99.90;;;;;;5040542;28;20039;-72
2022/05/06 06:26:35;;;;;;;35.35;21.65;;;14.30;99.90;;;;;;5028157;28;20040;-71
2022/05/06 06:29:02;;;;;;;36.92;21.92;;;14.30;99.90;;;;;;5060984;28;20039;-72
2022/05/06 06:31:31;;;;;;;32.85;21.38;;;14.60;99.90;;;;;;5070266;28;20038;-71
2022/05/06 06:33:57;;;;;;;38.53;23.17;;;14.70;99.90;;;;;;5044866;28;20036;-72
2022/05/06 06:36:24;;;;;;;40.67;23.33;;;14.60;99.90;;;;;;5044055;28;20374;-71
2022/05/06 06:38:50;;;;;;;39.05;24.65;;;14.40;99.90;;;;;;5077776;28;20066;-72
2022/05/06 06:41:16;;;;;;;39.50;23.50;;;14.40;99.90;;;;;;5065401;28;20038;-72
2022/05/06 06:43:42;;;;;;;38.70;24.13;;;14.60;99.90;;;;;;5047526;28;20087;-70
2022/05/06 06:46:08;;;;;;;39.38;23.70;;;14.80;99.90;;;;;;5045477;28;20361;-70
2022/05/06 06:48:34;;;;;;;41.38;25.02;;;14.60;99.90;;;;;;5060728;28;20052;-71
2022/05/06 06:51:00;;;;;;;43.28;25.50;;;14.70;99.90;;;;;;5032442;28;20040;-70
2022/05/06 06:53:26;;;;;;;42.80;26.17;;;14.80;99.90;;;;;;5063144;28;20045;-70
2022/05/06 06:55:52;;;;;;;39.97;24.85;;;14.90;99.90;;;;;;5052168;28;20235;-71
2022/05/06 06:58:17;;;;;;;42.13;25.65;;;15.20;99.90;;;;;;5026943;28;20033;-71
2022/05/06 07:00:43;;;;;;;38.53;25.85;;;15.50;99.90;;;;;;5027574;28;20035;-72
2022/05/06 07:03:10;;;;;;;35.80;23.48;;;15.30;99.90;;;;;;5063033;28;20271;-72
2022/05/06 07:05:36;;;;;;;38.28;24.30;;;15.30;99.90;;;;;;5039899;28;20223;-71
2022/05/06 07:13:30;;;;;;;37.70;23.77;;;14.80;99.90;;;;;;5077259;28;20115;-71
2022/05/06 07:15:56;;;;;;;35.78;21.73;;;14.80;99.90;;;;;;5043983;28;20065;-70
2022/05/06 07:18:22;;;;;;;34.28;21.63;;;14.90;99.90;;;;;;5059966;28;20029;-71
2022/05/06 07:20:48;;;;;;;31.75;21.02;;;15.30;99.90;;;;;;5045884;28;20033;-70
2022/05/06 07:23:14;;;;;;;28.30;19.58;;;15.30;99.90;;;;;;5042201;28;20040;-70
2022/05/06 07:25:40;;;;;;;26.45;18.77;;;15.30;99.90;;;;;;5079287;28;20401;-70
2022/05/06 07:28:07;;;;;;;25.52;17.85;;;15.20;99.90;;;;;;5046236;28;20047;-71
2022/05/06 07:30:33;;;;;;;24.55;17.10;;;15.50;99.90;;;;;;5062997;28;20353;-71
2022/05/06 07:32:59;;;;;;;22.55;16.67;;;15.40;99.90;;;;;;5063352;28;20032;-72
2022/05/06 07:35:25;;;;;;;27.77;19.52;;;15.10;99.90;;;;;;5045985;28;20067;-71
2022/05/06 07:37:51;;;;;;;26.70;18.23;;;15.00;99.90;;;;;;5030731;28;20063;-71
2022/05/06 07:40:17;;;;;;;25.52;18.33;;;14.90;99.90;;;;;;5075897;28;20033;-70
2022/05/06 07:42:45;;;;;;;24.98;17.33;;;14.70;99.90;;;;;;5061371;28;20048;-72
2022/05/06 07:45:15;;;;;;;25.13;17.40;;;15.10;99.90;;;;;;5062246;28;20043;-70
2022/05/06 07:47:41;;;;;;;25.67;16.35;;;14.90;99.90;;;;;;5035013;28;20049;-70
2022/05/06 07:50:07;;;;;;;28.65;17.83;;;15.30;99.90;;;;;;5042814;28;20115;-71
2022/05/06 07:52:33;;;;;;;24.08;17.02;;;15.00;99.90;;;;;;5090438;28;20242;-72
2022/05/06 07:54:59;;;;;;;25.98;17.85;;;15.30;99.90;;;;;;5065391;28;20045;-71
2022/05/06 07:57:24;;;;;;;25.67;17.50;;;15.60;99.90;;;;;;5025326;28;20220;-72
2022/05/06 07:59:50;;;;;;;25.27;17.92;;;15.30;99.90;;;;;;5042637;28;20174;-71
2022/05/06 08:05:00;;;;;;;22.70;16.42;;;15.30;99.90;;;;;;5048523;28;20040;-71
2022/05/06 08:07:25;;;;;;;26.92;16.02;;;15.20;99.90;;;;;;5025335;28;20044;-71
2022/05/06 08:09:51;;;;;;;22.50;15.25;;;15.00;99.90;;;;;;5042664;28;20303;-71
2022/05/06 08:12:17;;;;;;;26.58;16.20;;;15.10;99.90;;;;;;5048079;28;20039;-71
2022/05/06 08:14:44;;;;;;;18.42;13.60;;;15.50;99.90;;;;;;5062413;28;20076;-71
2022/05/06 08:17:10;;;;;;;20.00;13.63;;;15.30;99.90;;;;;;5062385;28;20078;-72
2022/05/06 08:19:35;;;;;;;19.75;14.13;;;15.10;99.90;;;;;;5060445;28;20394;-70
2022/05/06 08:22:01;;;;;;;16.98;12.23;;;15.20;99.90;;;;;;5078728;28;20299;-72
2022/05/06 08:24:27;;;;;;;18.80;13.00;;;15.40;99.90;;;;;;5062684;28;20270;-72
2022/05/06 08:26:53;;;;;;;16.63;12.23;;;15.10;99.90;;;;;;5065430;28;20079;-71
2022/05/06 08:29:19;;;;;;;17.63;12.52;;;15.40;99.90;;;;;;5062898;28;20025;-72
2022/05/06 08:31:45;;;;;;;18.58;13.10;;;15.60;99.90;;;;;;5062852;28;20035;-70
2022/05/06 08:34:12;;;;;;;19.13;13.07;;;15.60;99.90;;;;;;5062042;28;20033;-72
2022/05/06 08:36:43;;;;;;;19.58;12.40;;;15.50;99.90;;;;;;5056507;28;20060;-69
2022/05/06 08:39:13;;;;;;;18.45;13.18;;;15.30;99.90;;;;;;5099932;28;20036;-72
2022/05/06 08:41:39;;;;;;;19.13;13.23;;;15.40;99.90;;;;;;5103196;28;20059;-71
2022/05/06 08:52:32;;;;;;;17.10;12.88;;;15.60;99.90;;;;;;5096324;28;20234;-70
2022/05/06 08:55:01;;;;;;;17.73;11.27;;;15.70;99.90;;;;;;5052738;28;20041;-71
2022/05/06 08:57:27;;;;;;;15.55;11.73;;;15.60;99.90;;;;;;5076720;28;20075;-71
2022/05/06 08:59:53;;;;;;;13.85;10.38;;;15.60;99.90;;;;;;5043844;28;20044;-71
2022/05/06 09:02:19;;;;;;;14.20;9.95;;;15.80;99.90;;;;;;5046047;28;20066;-72
2022/05/06 09:04:44;;;;;;;13.68;10.38;;;16.10;99.90;;;;;;5063563;28;20044;-70
2022/05/06 09:07:21;;;;;;;13.00;9.98;;;16.30;99.90;;;;;;5046957;28;20039;-69
2022/05/06 09:10:07;;;;;;;12.18;9.52;;;16.40;99.90;;;;;;5046626;28;20041;-70
2022/05/06 09:12:41;;;;;;;11.15;9.25;;;16.40;99.90;;;;;;5029022;28;20336;-70
2022/05/06 09:17:56;;;;;;;12.93;8.43;;;16.60;99.90;;;;;;5063081;28;20126;-70
2022/05/06 09:20:22;;;;;;;11.15;8.93;;;16.80;99.90;;;;;;5046148;28;20048;-71
2022/05/06 09:22:52;;;;;;;12.38;8.57;;;17.10;99.90;;;;;;5062506;28;20380;-69
2022/05/06 09:25:37;;;;;;;8.10;7.25;;;17.10;99.90;;;;;;5062621;28;20089;-70
2022/05/06 09:28:04;;;;;;;10.15;7.97;;;16.90;99.90;;;;;;5063071;28;20206;-71
2022/05/06 09:30:29;;;;;;;9.40;7.03;;;16.60;99.90;;;;;;5062612;28;20037;-71
2022/05/06 09:32:55;;;;;;;9.77;7.28;;;17.00;99.90;;;;;;5045786;28;20040;-70
2022/05/06 09:35:26;;;;;;;8.77;7.50;;;17.50;99.90;;;;;;5062431;28;20230;-69
2022/05/06 09:37:52;;;;;;;7.60;6.65;;;17.60;99.90;;;;;;5063131;28;20052;-71
2022/05/06 09:40:18;;;;;;;8.90;7.35;;;18.30;99.90;;;;;;5029142;28;20051;-71
2022/05/06 09:43:07;;;;;;;8.93;6.57;;;18.30;99.90;;;;;;5062464;28;20432;-71
2022/05/06 09:45:37;;;;;;;7.40;6.47;;;18.90;99.90;;;;;;5061761;28;20044;-70
2022/05/06 09:48:04;;;;;;;7.60;6.80;;;18.90;99.90;;;;;;5062639;28;20396;-68
2022/05/06 09:50:38;;;;;;;6.43;5.65;;;18.70;99.90;;;;;;5045934;28;20040;-69
2022/05/06 09:53:07;;;;;;;7.30;5.77;;;18.60;99.90;;;;;;5062322;28;20099;-69
2022/05/06 09:55:35;;;;;;;6.03;5.43;;;19.00;99.90;;;;;;5062053;28;20036;-68
2022/05/06 09:58:01;;;;;;;8.98;5.43;;;19.20;99.90;;;;;;5062838;28;20048;-68
2022/05/06 10:00:27;;;;;;;5.53;4.97;;;19.30;99.90;;;;;;5062011;28;20055;-72
2022/05/06 10:02:54;;;;;;;7.00;4.93;;;19.70;99.90;;;;;;5046274;28;20036;-70
2022/05/06 10:05:20;;;;;;;5.55;5.05;;;19.80;99.90;;;;;;5028887;28;20039;-73
2022/05/06 10:07:46;;;;;;;5.20;4.80;;;19.40;99.90;;;;;;5029133;28;20231;-70
2022/05/06 10:10:22;;;;;;;5.40;4.90;;;19.20;99.90;;;;;;5062138;28;20040;-69
2022/05/06 10:12:53;;;;;;;4.32;3.92;;;19.50;99.90;;;;;;5061999;28;20044;-70
2022/05/06 10:15:22;;;;;;;5.95;4.05;;;19.60;99.90;;;;;;5045718;28;20040;-69
2022/05/06 10:17:50;;;;;;;4.63;4.22;;;19.70;99.90;;;;;;5062213;28;20107;-68
2022/05/06 10:20:35;;;;;;;4.97;3.70;;;19.20;99.90;;;;;;5045623;28;20431;-68
2022/05/06 10:23:11;;;;;;;4.60;4.20;;;19.50;99.90;;;;;;5045392;28;20047;-68
2022/05/06 10:25:40;;;;;;;4.57;3.47;;;19.50;99.90;;;;;;5061847;28;20045;-69
2022/05/06 10:34:09;;;;;;;4.30;3.90;;;19.40;99.90;;;;;;5061635;28;20298;-68
2022/05/06 10:36:45;;;;;;;4.57;4.03;;;19.40;99.90;;;;;;5044726;28;20235;-71
2022/05/06 10:39:25;;;;;;;3.92;3.63;;;19.60;99.90;;;;;;5062049;28;20131;-70
2022/05/06 10:42:11;;;;;;;5.07;3.55;;;19.80;99.90;;;;;;5061099;28;20041;-67
2022/05/06 10:44:38;;;;;;;4.28;3.88;;;19.90;99.90;;;;;;5044690;28;20154;-69
2022/05/06 10:47:24;;;;;;;6.45;3.90;;;20.40;99.90;;;;;;5027726;28;20049;-70
2022/05/06 10:49:51;;;;;;;6.05;3.67;;;20.30;99.90;;;;;;5027725;28;20257;-68
2022/05/06 10:52:24;;;;;;;4.82;3.72;;;20.80;99.90;;;;;;5060671;28;20064;-68
2022/05/06 10:54:55;;;;;;;4.22;3.83;;;20.90;99.90;;;;;;5061636;28;20105;-71
2022/05/06 10:57:30;;;;;;;4.50;4.10;;;20.70;99.90;;;;;;5060837;28;20051;-70
2022/05/06 11:00:02;;;;;;;;;;;21.10;99.90;;;;;;5061690;28;20040;-71
2022/05/06 11:02:29;;;;;;;4.43;3.90;;;21.00;99.90;;;;;;5060238;28;19921;-69
2022/05/06 11:05:01;;;;;;;5.20;4.13;;;20.80;99.90;;;;;;5044250;28;20049;-69
2022/05/06 11:07:28;;;;;;;4.47;4.07;;;20.50;99.90;;;;;;5078491;28;20281;-71
2022/05/06 11:09:53;;;;;;;4.82;4.30;;;21.00;99.90;;;;;;5061119;28;20227;-69
2022/05/06 11:12:33;;;;;;;4.47;4.07;;;20.80;99.90;;;;;;5060552;28;20111;-70
2022/05/06 11:15:03;;;;;;;3.80;3.50;;;21.10;99.90;;;;;;5044625;28;20204;-70
2022/05/06 11:17:32;;;;;;;3.85;3.30;;;21.50;99.90;;;;;;5060216;28;20033;-71
2022/05/06 11:20:23;;;;;;;3.78;3.35;;;21.70;99.90;;;;;;5061237;28;20341;-70
2022/05/06 11:23:09;;;;;;;3.83;3.22;;;22.00;99.90;;;;;;5046388;28;20055;-70
2022/05/06 11:25:42;;;;;;;3.38;3.08;;;22.10;99.90;;;;;;5043640;28;20112;-70
2022/05/06 11:28:15;;;;;;;3.00;2.80;;;21.70;99.90;;;;;;5061008;28;20028;-70
2022/05/06 11:30:46;;;;;;;2.75;2.55;;;21.60;99.90;;;;;;5043968;28;20079;-70
2022/05/06 11:33:31;;;;;;;2.60;2.30;;;21.80;99.90;;;;;;5058560;28;20131;-72
2022/05/06 11:36:02;;;;;;;2.67;1.90;;;22.00;99.90;;;;;;5049721;28;20355;-70
2022/05/06 11:38:39;;;;;;;3.40;1.92;;;22.20;99.90;;;;;;5040151;28;20037;-71
2022/05/06 11:41:10;;;;;;;2.50;2.30;;;22.60;99.90;;;;;;5040913;28;20044;-71
2022/05/06 11:43:37;;;;;;;2.95;2.33;;;22.60;99.90;;;;;;5042042;28;20076;-70
2022/05/06 11:48:47;;;;;;;2.65;2.33;;;22.20;99.90;;;;;;5060198;28;20063;-69
2022/05/06 11:51:19;;;;;;;2.55;2.05;;;22.20;99.90;;;;;;5043960;28;20047;-70
2022/05/06 11:53:46;;;;;;;2.53;2.22;;;21.80;99.90;;;;;;5059538;28;20075;-67
2022/05/06 11:56:12;;;;;;;3.05;2.47;;;22.40;99.90;;;;;;5040425;28;20052;-70
2022/05/06 11:58:39;;;;;;;3.38;3.08;;;22.40;99.90;;;;;;5039279;28;20076;-71
2022/05/06 12:01:05;;;;;;;2.75;2.50;;;22.40;99.90;;;;;;5056177;28;20045;-71
2022/05/06 12:03:31;;;;;;;2.42;2.22;;;22.20;99.90;;;;;;5039425;28;20039;-69
2022/05/06 12:06:06;;;;;;;2.63;2.10;;;22.80;99.90;;;;;;5055214;28;20040;-70
2022/05/06 12:08:33;;;;;;;2.10;1.88;;;22.10;99.90;;;;;;5078058;28;20356;-71
2022/05/06 12:11:01;;;;;;;1.85;1.70;;;21.90;99.90;;;;;;5027007;28;20040;-71
2022/05/06 12:13:41;;;;;;;3.00;2.70;;;21.50;99.90;;;;;;5043023;28;20354;-69
2022/05/06 12:16:12;;;;;;;3.35;2.75;;;21.20;99.90;;;;;;5059715;28;20321;-70
2022/05/06 12:18:50;;;;;;;3.40;2.28;;;21.50;99.90;;;;;;5059653;28;20278;-71
2022/05/06 12:21:25;;;;;;;2.50;2.03;;;21.90;99.90;;;;;;5043534;28;20047;-69
2022/05/06 12:24:01;;;;;;;2.67;2.20;;;22.30;99.90;;;;;;5059728;28;20040;-71
2022/05/06 12:26:35;;;;;;;3.65;2.33;;;22.50;99.90;;;;;;5059550;28;20045;-69
2022/05/06 12:29:02;;;;;;;4.15;2.50;;;22.60;99.90;;;;;;5059719;28;20121;-72
2022/05/06 12:31:29;;;;;;;3.03;2.60;;;22.10;99.90;;;;;;5070420;28;20036;-70
2022/05/06 12:34:09;;;;;;;3.00;2.25;;;21.60;99.90;;;;;;5060010;28;20246;-70
2022/05/06 12:36:37;;;;;;;3.05;2.30;;;21.60;99.90;;;;;;5067001;28;20162;-68
2022/05/06 12:39:17;;;;;;;3.33;2.67;;;21.60;99.90;;;;;;5060007;28;20339;-72
2022/05/06 12:41:43;;;;;;;2.42;2.22;;;21.60;99.90;;;;;;5042801;28;20399;-68
2022/05/06 12:44:19;;;;;;;2.40;2.20;;;21.80;99.90;;;;;;5059897;28;20215;-70
2022/05/06 12:46:46;;;;;;;2.28;1.90;;;22.40;99.90;;;;;;5059244;28;20146;-71
2022/05/06 12:51:56;;;;;;;4.18;2.25;;;22.20;99.90;;;;;;5045763;28;20047;-70
2022/05/06 12:54:23;;;;;;;2.50;1.98;;;21.60;99.90;;;;;;5059777;28;20060;-70
2022/05/06 12:56:49;;;;;;;1.83;1.33;;;22.10;99.90;;;;;;5059570;28;20063;-70
2022/05/06 12:59:14;;;;;;;2.75;1.80;;;22.30;99.90;;;;;;5043010;28;20207;-70
2022/05/06 13:01:40;;;;;;;2.22;1.50;;;22.70;99.90;;;;;;5059117;28;20227;-69
2022/05/06 13:04:06;;;;;;;1.50;1.20;;;23.40;99.90;;;;;;5059920;28;20044;-69
2022/05/06 13:06:33;;;;;;;2.22;1.70;;;23.10;99.90;;;;;;5059021;28;20032;-71
2022/05/06 13:08:59;;;;;;;2.53;1.50;;;23.40;99.90;;;;;;5059703;28;20064;-71
2022/05/06 13:11:25;;;;;;;2.67;1.65;;;23.60;99.90;;;;;;5061428;28;20189;-69
2022/05/06 13:13:52;;;;;;;1.58;1.48;;;22.70;99.90;;;;;;5046870;28;20037;-71
2022/05/06 13:16:17;;;;;;;2.38;1.63;;;23.00;99.90;;;;;;5063235;28;20116;-71
2022/05/06 13:18:43;;;;;;;1.88;1.40;;;22.30;99.90;;;;;;5046001;28;20246;-68
2022/05/06 13:21:09;;;;;;;1.70;1.60;;;22.60;99.90;;;;;;5063046;28;20044;-70
2022/05/06 13:23:35;;;;;;;2.83;1.70;;;22.50;99.90;;;;;;5062973;28;20055;-68
2022/05/06 13:26:02;;;;;;;2.67;1.85;;;22.30;99.90;;;;;;5046567;28;20107;-70